sensor_id;sensor_type;location;lat;lon;timestamp;temperature;humidity
19829;DHT22;10075;50.924;4.396;2024-02-23T00:02:31;6.20;99.90
19829;DHT22;10075;50.924;4.396;2024-02-23T00:04:57;6.20;99.90
19829;DHT22;10075;50.924;4.396;2024-02-23T00:07:26;6.30;99.90
19829;DHT22;10075;50.924;4.396;2024-02-23T00:09:53;6.40;99.90
19829;DHT22;10075;50.924;4.396;2024-02-23T00:12:20;6.30;99.90
19829;DHT22;10075;50.924;4.396;2024-02-23T00:14:47;6.30;99.90
19829;DHT22;10075;50.924;4.396;2024-02-23T00:17:15;6.30;99.90
19829;DHT22;10075;50.924;4.396;2024-02-23T00:19:44;6.10;99.90
19829;DHT22;10075;50.924;4.396;2024-02-23T00:22:11;6.20;99.90
19829;DHT22;10075;50.924;4.396;2024-02-23T00:24:40;6.30;99.90
19829;DHT22;10075;50.924;4.396;2024-02-23T00:27:06;6.20;99.90
19829;DHT22;10075;50.924;4.396;2024-02-23T00:29:33;6.20;99.90
19829;DHT22;10075;50.924;4.396;2024-02-23T00:32:00;6.10;99.90
19829;DHT22;10075;50.924;4.396;2024-02-23T00:34:27;6.00;99.90
19829;DHT22;10075;50.924;4.396;2024-02-23T00:36:56;6.00;99.90
19829;DHT22;10075;50.924;4.396;2024-02-23T00:39:23;6.00;99.90
19829;DHT22;10075;50.924;4.396;2024-02-23T00:41:51;5.90;99.90
19829;DHT22;10075;50.924;4.396;2024-02-23T00:44:18;5.90;99.90
19829;DHT22;10075;50.924;4.396;2024-02-23T00:46:45;6.00;99.90
19829;DHT22;10075;50.924;4.396;2024-02-23T00:49:12;6.10;99.90
19829;DHT22;10075;50.924;4.396;2024-02-23T00:51:39;6.00;99.90
19829;DHT22;10075;50.924;4.396;2024-02-23T00:54:06;5.90;99.90
19829;DHT22;10075;50.924;4.396;2024-02-23T00:56:33;5.80;99.90
19829;DHT22;10075;50.924;4.396;2024-02-23T00:59:02;5.80;99.90
19829;DHT22;10075;50.924;4.396;2024-02-23T01:01:28;5.80;99.90
19829;DHT22;10075;50.924;4.396;2024-02-23T01:03:55;5.70;99.90
19829;DHT22;10075;50.924;4.396;2024-02-23T01:06:23;5.70;99.90
19829;DHT22;10075;50.924;4.396;2024-02-23T01:08:50;5.70;99.90
19829;DHT22;10075;50.924;4.396;2024-02-23T01:11:17;5.80;99.90
19829;DHT22;10075;50.924;4.396;2024-02-23T01:13:44;5.80;99.90
19829;DHT22;10075;50.924;4.396;2024-02-23T01:16:13;5.80;99.90
19829;DHT22;10075;50.924;4.396;2024-02-23T01:18:40;5.80;99.90
19829;DHT22;10075;50.924;4.396;2024-02-23T01:21:08;5.70;99.90
19829;DHT22;10075;50.924;4.396;2024-02-23T01:23:34;5.70;99.90
19829;DHT22;10075;50.924;4.396;2024-02-23T01:26:01;5.80;99.90
19829;DHT22;10075;50.924;4.396;2024-02-23T01:28:28;5.70;99.90
19829;DHT22;10075;50.924;4.396;2024-02-23T01:30:55;5.70;99.90
19829;DHT22;10075;50.924;4.396;2024-02-23T01:33:23;5.70;99.90
19829;DHT22;10075;50.924;4.396;2024-02-23T01:35:50;5.70;99.90
19829;DHT22;10075;50.924;4.396;2024-02-23T01:38:17;5.70;99.90
19829;DHT22;10075;50.924;4.396;2024-02-23T01:40:46;5.60;99.90
19829;DHT22;10075;50.924;4.396;2024-02-23T01:43:14;5.60;99.90
19829;DHT22;10075;50.924;4.396;2024-02-23T01:45:40;5.60;99.90
19829;DHT22;10075;50.924;4.396;2024-02-23T01:48:07;5.70;99.90
19829;DHT22;10075;50.924;4.396;2024-02-23T01:50:36;5.80;99.90
19829;DHT22;10075;50.924;4.396;2024-02-23T01:53:04;5.80;99.90
19829;DHT22;10075;50.924;4.396;2024-02-23T01:55:32;5.70;99.90
19829;DHT22;10075;50.924;4.396;2024-02-23T01:58:00;5.90;99.90
19829;DHT22;10075;50.924;4.396;2024-02-23T02:00:27;5.80;99.90
19829;DHT22;10075;50.924;4.396;2024-02-23T02:02:55;5.80;99.90
19829;DHT22;10075;50.924;4.396;2024-02-23T02:05:22;5.80;99.90
19829;DHT22;10075;50.924;4.396;2024-02-23T02:07:51;5.70;99.90
19829;DHT22;10075;50.924;4.396;2024-02-23T02:10:24;5.70;99.90
19829;DHT22;10075;50.924;4.396;2024-02-23T02:12:51;5.80;99.90
19829;DHT22;10075;50.924;4.396;2024-02-23T02:15:18;5.80;99.90
19829;DHT22;10075;50.924;4.396;2024-02-23T02:17:47;5.60;99.90
19829;DHT22;10075;50.924;4.396;2024-02-23T02:20:14;5.50;99.90
19829;DHT22;10075;50.924;4.396;2024-02-23T02:22:41;5.50;99.90
19829;DHT22;10075;50.924;4.396;2024-02-23T02:25:09;5.50;99.90
19829;DHT22;10075;50.924;4.396;2024-02-23T02:27:36;5.50;99.90
19829;DHT22;10075;50.924;4.396;2024-02-23T02:30:04;5.50;99.90
19829;DHT22;10075;50.924;4.396;2024-02-23T02:32:31;5.60;99.90
19829;DHT22;10075;50.924;4.396;2024-02-23T02:34:58;5.70;99.90
19829;DHT22;10075;50.924;4.396;2024-02-23T02:37:25;5.80;99.90
19829;DHT22;10075;50.924;4.396;2024-02-23T02:39:51;5.70;99.90
19829;DHT22;10075;50.924;4.396;2024-02-23T02:42:20;5.80;99.90
19829;DHT22;10075;50.924;4.396;2024-02-23T02:44:47;5.80;99.90
19829;DHT22;10075;50.924;4.396;2024-02-23T02:47:13;5.80;99.90
19829;DHT22;10075;50.924;4.396;2024-02-23T02:49:40;5.70;99.90
19829;DHT22;10075;50.924;4.396;2024-02-23T02:52:07;5.60;99.90
19829;DHT22;10075;50.924;4.396;2024-02-23T02:54:35;5.60;99.90
19829;DHT22;10075;50.924;4.396;2024-02-23T02:57:02;5.70;99.90
19829;DHT22;10075;50.924;4.396;2024-02-23T02:59:33;5.90;99.90
19829;DHT22;10075;50.924;4.396;2024-02-23T03:02:00;5.90;99.90
19829;DHT22;10075;50.924;4.396;2024-02-23T03:04:27;5.90;99.90
19829;DHT22;10075;50.924;4.396;2024-02-23T03:06:54;5.90;99.90
19829;DHT22;10075;50.924;4.396;2024-02-23T03:09:21;5.90;99.90
19829;DHT22;10075;50.924;4.396;2024-02-23T03:11:48;6.00;99.90
19829;DHT22;10075;50.924;4.396;2024-02-23T03:14:15;6.10;99.90
19829;DHT22;10075;50.924;4.396;2024-02-23T03:16:45;6.20;99.90
19829;DHT22;10075;50.924;4.396;2024-02-23T03:19:13;6.30;99.90
19829;DHT22;10075;50.924;4.396;2024-02-23T03:21:41;6.30;99.90
19829;DHT22;10075;50.924;4.396;2024-02-23T03:24:07;6.10;99.90
19829;DHT22;10075;50.924;4.396;2024-02-23T03:26:34;6.10;99.90
19829;DHT22;10075;50.924;4.396;2024-02-23T03:29:01;6.10;99.90
19829;DHT22;10075;50.924;4.396;2024-02-23T03:31:28;6.10;99.90
19829;DHT22;10075;50.924;4.396;2024-02-23T03:33:56;6.10;99.90
19829;DHT22;10075;50.924;4.396;2024-02-23T03:36:23;6.20;99.90
19829;DHT22;10075;50.924;4.396;2024-02-23T03:38:50;6.20;99.90
19829;DHT22;10075;50.924;4.396;2024-02-23T03:41:18;6.20;99.90
19829;DHT22;10075;50.924;4.396;2024-02-23T03:43:45;6.20;99.90
19829;DHT22;10075;50.924;4.396;2024-02-23T03:46:12;6.10;99.90
19829;DHT22;10075;50.924;4.396;2024-02-23T03:48:40;6.20;99.90
19829;DHT22;10075;50.924;4.396;2024-02-23T03:51:08;6.20;99.90
19829;DHT22;10075;50.924;4.396;2024-02-23T03:53:35;6.20;99.90
19829;DHT22;10075;50.924;4.396;2024-02-23T03:56:03;6.30;99.90
19829;DHT22;10075;50.924;4.396;2024-02-23T03:58:30;6.40;99.90
19829;DHT22;10075;50.924;4.396;2024-02-23T04:00:56;6.50;99.90
19829;DHT22;10075;50.924;4.396;2024-02-23T04:03:23;6.40;99.90
19829;DHT22;10075;50.924;4.396;2024-02-23T04:05:50;6.40;99.90
19829;DHT22;10075;50.924;4.396;2024-02-23T04:08:19;6.40;99.90
19829;DHT22;10075;50.924;4.396;2024-02-23T04:10:45;6.40;99.90
19829;DHT22;10075;50.924;4.396;2024-02-23T04:13:12;6.40;99.90
19829;DHT22;10075;50.924;4.396;2024-02-23T04:15:40;6.50;99.90
19829;DHT22;10075;50.924;4.396;2024-02-23T04:18:07;6.50;99.90
19829;DHT22;10075;50.924;4.396;2024-02-23T04:20:34;6.40;99.90
19829;DHT22;10075;50.924;4.396;2024-02-23T04:23:01;6.30;99.90
19829;DHT22;10075;50.924;4.396;2024-02-23T04:25:29;6.30;99.90
19829;DHT22;10075;50.924;4.396;2024-02-23T04:27:56;6.30;99.90
19829;DHT22;10075;50.924;4.396;2024-02-23T04:30:23;6.20;99.90
19829;DHT22;10075;50.924;4.396;2024-02-23T04:32:49;6.20;99.90
19829;DHT22;10075;50.924;4.396;2024-02-23T04:35:16;6.20;99.90
19829;DHT22;10075;50.924;4.396;2024-02-23T04:37:44;6.10;99.90
19829;DHT22;10075;50.924;4.396;2024-02-23T04:40:11;6.10;99.90
19829;DHT22;10075;50.924;4.396;2024-02-23T04:42:40;6.10;99.90
19829;DHT22;10075;50.924;4.396;2024-02-23T04:45:07;6.10;99.90
19829;DHT22;10075;50.924;4.396;2024-02-23T04:47:35;6.10;99.90
19829;DHT22;10075;50.924;4.396;2024-02-23T04:50:02;6.10;99.90
19829;DHT22;10075;50.924;4.396;2024-02-23T04:52:29;6.10;99.90
19829;DHT22;10075;50.924;4.396;2024-02-23T04:54:58;6.20;99.90
19829;DHT22;10075;50.924;4.396;2024-02-23T04:57:25;6.30;99.90
19829;DHT22;10075;50.924;4.396;2024-02-23T04:59:54;6.30;99.90
19829;DHT22;10075;50.924;4.396;2024-02-23T05:02:20;6.30;99.90
19829;DHT22;10075;50.924;4.396;2024-02-23T05:04:47;6.40;99.90
19829;DHT22;10075;50.924;4.396;2024-02-23T05:07:14;6.40;99.90
19829;DHT22;10075;50.924;4.396;2024-02-23T05:09:41;6.40;99.90
19829;DHT22;10075;50.924;4.396;2024-02-23T05:12:09;6.30;99.90
19829;DHT22;10075;50.924;4.396;2024-02-23T05:14:35;6.30;99.90
19829;DHT22;10075;50.924;4.396;2024-02-23T05:17:04;6.50;99.90
19829;DHT22;10075;50.924;4.396;2024-02-23T05:19:31;6.70;99.90
19829;DHT22;10075;50.924;4.396;2024-02-23T05:21:58;6.70;99.90
19829;DHT22;10075;50.924;4.396;2024-02-23T05:24:24;6.70;99.90
19829;DHT22;10075;50.924;4.396;2024-02-23T05:26:52;6.70;99.90
19829;DHT22;10075;50.924;4.396;2024-02-23T05:29:18;6.70;99.90
19829;DHT22;10075;50.924;4.396;2024-02-23T05:31:49;6.60;99.90
19829;DHT22;10075;50.924;4.396;2024-02-23T05:34:17;6.60;99.90
19829;DHT22;10075;50.924;4.396;2024-02-23T05:36:45;6.60;99.90
19829;DHT22;10075;50.924;4.396;2024-02-23T05:39:12;6.50;99.90
19829;DHT22;10075;50.924;4.396;2024-02-23T05:41:41;6.60;99.90
19829;DHT22;10075;50.924;4.396;2024-02-23T05:44:08;6.40;99.90
19829;DHT22;10075;50.924;4.396;2024-02-23T05:46:36;6.40;99.90
19829;DHT22;10075;50.924;4.396;2024-02-23T05:49:03;6.50;99.90
19829;DHT22;10075;50.924;4.396;2024-02-23T05:51:32;6.50;99.90
19829;DHT22;10075;50.924;4.396;2024-02-23T05:53:59;6.50;99.90
19829;DHT22;10075;50.924;4.396;2024-02-23T05:56:26;6.60;99.90
19829;DHT22;10075;50.924;4.396;2024-02-23T05:58:53;6.60;99.90
19829;DHT22;10075;50.924;4.396;2024-02-23T06:01:20;6.70;99.90
19829;DHT22;10075;50.924;4.396;2024-02-23T06:03:47;6.70;99.90
19829;DHT22;10075;50.924;4.396;2024-02-23T06:06:14;6.70;99.90
19829;DHT22;10075;50.924;4.396;2024-02-23T06:08:42;6.60;99.90
19829;DHT22;10075;50.924;4.396;2024-02-23T06:11:09;6.60;99.90
19829;DHT22;10075;50.924;4.396;2024-02-23T06:13:37;6.50;99.90
19829;DHT22;10075;50.924;4.396;2024-02-23T06:16:04;6.60;99.90
19829;DHT22;10075;50.924;4.396;2024-02-23T06:18:31;6.40;99.90
19829;DHT22;10075;50.924;4.396;2024-02-23T06:20:58;6.40;99.90
19829;DHT22;10075;50.924;4.396;2024-02-23T06:23:25;6.30;99.90
19829;DHT22;10075;50.924;4.396;2024-02-23T06:25:53;6.30;99.90
19829;DHT22;10075;50.924;4.396;2024-02-23T06:28:20;6.30;99.90
19829;DHT22;10075;50.924;4.396;2024-02-23T06:30:47;6.40;99.90
19829;DHT22;10075;50.924;4.396;2024-02-23T06:33:14;6.40;99.90
19829;DHT22;10075;50.924;4.396;2024-02-23T06:35:41;6.40;99.90
19829;DHT22;10075;50.924;4.396;2024-02-23T06:38:08;6.40;99.90
19829;DHT22;10075;50.924;4.396;2024-02-23T06:40:35;6.40;99.90
19829;DHT22;10075;50.924;4.396;2024-02-23T06:43:04;6.30;99.90
19829;DHT22;10075;50.924;4.396;2024-02-23T06:45:30;6.40;99.90
19829;DHT22;10075;50.924;4.396;2024-02-23T06:47:57;6.50;99.90
19829;DHT22;10075;50.924;4.396;2024-02-23T06:50:24;6.50;99.90
19829;DHT22;10075;50.924;4.396;2024-02-23T06:52:51;6.60;99.90
19829;DHT22;10075;50.924;4.396;2024-02-23T06:55:18;6.70;99.90
19829;DHT22;10075;50.924;4.396;2024-02-23T06:57:45;6.80;99.90
19829;DHT22;10075;50.924;4.396;2024-02-23T07:00:14;6.80;99.90
19829;DHT22;10075;50.924;4.396;2024-02-23T07:02:41;6.70;99.90
19829;DHT22;10075;50.924;4.396;2024-02-23T07:05:09;6.70;99.90
19829;DHT22;10075;50.924;4.396;2024-02-23T07:07:36;6.70;99.90
19829;DHT22;10075;50.924;4.396;2024-02-23T07:10:04;6.80;99.90
19829;DHT22;10075;50.924;4.396;2024-02-23T07:12:31;6.90;99.90
19829;DHT22;10075;50.924;4.396;2024-02-23T07:14:58;7.00;99.90
19829;DHT22;10075;50.924;4.396;2024-02-23T07:17:26;6.80;99.90
19829;DHT22;10075;50.924;4.396;2024-02-23T07:19:53;7.00;99.90
19829;DHT22;10075;50.924;4.396;2024-02-23T07:22:28;7.10;99.90
19829;DHT22;10075;50.924;4.396;2024-02-23T07:24:55;7.10;99.90
19829;DHT22;10075;50.924;4.396;2024-02-23T07:27:22;7.20;99.90
19829;DHT22;10075;50.924;4.396;2024-02-23T07:29:49;7.00;99.90
19829;DHT22;10075;50.924;4.396;2024-02-23T07:32:16;7.00;99.90
19829;DHT22;10075;50.924;4.396;2024-02-23T07:34:44;7.10;99.90
19829;DHT22;10075;50.924;4.396;2024-02-23T07:37:11;7.10;99.90
19829;DHT22;10075;50.924;4.396;2024-02-23T07:39:38;7.20;99.90
19829;DHT22;10075;50.924;4.396;2024-02-23T07:42:05;7.20;99.90
19829;DHT22;10075;50.924;4.396;2024-02-23T07:44:34;7.20;99.90
19829;DHT22;10075;50.924;4.396;2024-02-23T07:47:03;7.20;99.90
19829;DHT22;10075;50.924;4.396;2024-02-23T07:49:30;7.20;99.90
19829;DHT22;10075;50.924;4.396;2024-02-23T07:51:58;7.40;99.90
19829;DHT22;10075;50.924;4.396;2024-02-23T07:54:25;7.50;99.90
19829;DHT22;10075;50.924;4.396;2024-02-23T07:56:52;7.60;99.90
19829;DHT22;10075;50.924;4.396;2024-02-23T07:59:19;7.60;99.90
19829;DHT22;10075;50.924;4.396;2024-02-23T08:01:46;7.60;99.90
19829;DHT22;10075;50.924;4.396;2024-02-23T08:04:13;7.50;99.90
19829;DHT22;10075;50.924;4.396;2024-02-23T08:06:40;7.50;99.90
19829;DHT22;10075;50.924;4.396;2024-02-23T08:09:13;7.60;99.90
19829;DHT22;10075;50.924;4.396;2024-02-23T08:11:40;7.70;99.90
19829;DHT22;10075;50.924;4.396;2024-02-23T08:14:07;7.70;99.90
19829;DHT22;10075;50.924;4.396;2024-02-23T08:16:34;7.60;99.90
19829;DHT22;10075;50.924;4.396;2024-02-23T08:19:01;7.50;99.90
19829;DHT22;10075;50.924;4.396;2024-02-23T08:21:29;7.50;99.90
19829;DHT22;10075;50.924;4.396;2024-02-23T08:23:56;7.40;99.90
19829;DHT22;10075;50.924;4.396;2024-02-23T08:26:24;7.20;99.90
19829;DHT22;10075;50.924;4.396;2024-02-23T08:28:51;7.10;99.90
19829;DHT22;10075;50.924;4.396;2024-02-23T08:31:18;7.00;99.90
19829;DHT22;10075;50.924;4.396;2024-02-23T08:33:45;6.80;99.90
19829;DHT22;10075;50.924;4.396;2024-02-23T08:36:12;6.60;99.90
19829;DHT22;10075;50.924;4.396;2024-02-23T08:38:39;6.50;99.90
19829;DHT22;10075;50.924;4.396;2024-02-23T08:41:06;6.40;99.90
19829;DHT22;10075;50.924;4.396;2024-02-23T08:43:35;6.40;99.90
19829;DHT22;10075;50.924;4.396;2024-02-23T08:46:02;6.40;99.90
19829;DHT22;10075;50.924;4.396;2024-02-23T08:48:29;6.50;99.90
19829;DHT22;10075;50.924;4.396;2024-02-23T08:50:55;6.60;99.90
19829;DHT22;10075;50.924;4.396;2024-02-23T08:53:22;6.80;99.90
19829;DHT22;10075;50.924;4.396;2024-02-23T08:55:49;6.70;99.90
19829;DHT22;10075;50.924;4.396;2024-02-23T08:58:16;6.60;99.90
19829;DHT22;10075;50.924;4.396;2024-02-23T09:00:45;6.60;99.90
19829;DHT22;10075;50.924;4.396;2024-02-23T09:03:12;6.70;99.90
19829;DHT22;10075;50.924;4.396;2024-02-23T09:05:39;6.70;99.90
19829;DHT22;10075;50.924;4.396;2024-02-23T09:08:06;6.70;99.90
19829;DHT22;10075;50.924;4.396;2024-02-23T09:10:33;6.60;99.90
19829;DHT22;10075;50.924;4.396;2024-02-23T09:13:00;6.50;99.90
19829;DHT22;10075;50.924;4.396;2024-02-23T09:15:29;6.60;99.90
19829;DHT22;10075;50.924;4.396;2024-02-23T09:17:57;6.60;99.90
19829;DHT22;10075;50.924;4.396;2024-02-23T09:20:24;6.70;99.90
19829;DHT22;10075;50.924;4.396;2024-02-23T09:22:51;6.80;99.90
19829;DHT22;10075;50.924;4.396;2024-02-23T09:25:18;7.00;99.90
19829;DHT22;10075;50.924;4.396;2024-02-23T09:27:45;7.20;99.90
19829;DHT22;10075;50.924;4.396;2024-02-23T09:30:13;7.40;99.90
19829;DHT22;10075;50.924;4.396;2024-02-23T09:32:40;7.60;99.90
19829;DHT22;10075;50.924;4.396;2024-02-23T09:35:08;7.80;99.90
19829;DHT22;10075;50.924;4.396;2024-02-23T09:37:35;7.70;99.90
19829;DHT22;10075;50.924;4.396;2024-02-23T09:40:02;7.70;99.90
19829;DHT22;10075;50.924;4.396;2024-02-23T09:42:30;7.80;99.90
19829;DHT22;10075;50.924;4.396;2024-02-23T09:44:59;7.90;99.90
19829;DHT22;10075;50.924;4.396;2024-02-23T09:47:27;8.00;99.90
19829;DHT22;10075;50.924;4.396;2024-02-23T09:49:55;7.90;99.90
19829;DHT22;10075;50.924;4.396;2024-02-23T09:52:23;8.00;99.90
19829;DHT22;10075;50.924;4.396;2024-02-23T09:54:49;8.00;99.90
19829;DHT22;10075;50.924;4.396;2024-02-23T09:57:16;8.20;99.90
19829;DHT22;10075;50.924;4.396;2024-02-23T09:59:44;8.40;99.90
19829;DHT22;10075;50.924;4.396;2024-02-23T10:02:15;8.50;99.90
19829;DHT22;10075;50.924;4.396;2024-02-23T10:04:43;8.60;99.90
19829;DHT22;10075;50.924;4.396;2024-02-23T10:07:12;8.80;99.90
19829;DHT22;10075;50.924;4.396;2024-02-23T10:09:42;9.00;99.90
19829;DHT22;10075;50.924;4.396;2024-02-23T10:12:09;9.00;99.90
19829;DHT22;10075;50.924;4.396;2024-02-23T10:14:36;9.00;99.90
19829;DHT22;10075;50.924;4.396;2024-02-23T10:17:03;9.10;99.90
19829;DHT22;10075;50.924;4.396;2024-02-23T10:19:33;9.10;99.90
19829;DHT22;10075;50.924;4.396;2024-02-23T10:22:00;9.20;99.90
19829;DHT22;10075;50.924;4.396;2024-02-23T10:24:27;9.30;99.90
19829;DHT22;10075;50.924;4.396;2024-02-23T10:26:55;9.20;99.90
19829;DHT22;10075;50.924;4.396;2024-02-23T10:29:23;9.20;99.90
19829;DHT22;10075;50.924;4.396;2024-02-23T10:31:51;9.20;99.90
19829;DHT22;10075;50.924;4.396;2024-02-23T10:34:19;9.40;99.90
19829;DHT22;10075;50.924;4.396;2024-02-23T10:36:46;9.40;99.90
19829;DHT22;10075;50.924;4.396;2024-02-23T10:39:17;9.40;99.90
19829;DHT22;10075;50.924;4.396;2024-02-23T10:41:47;9.40;99.90
19829;DHT22;10075;50.924;4.396;2024-02-23T10:44:20;9.40;99.90
19829;DHT22;10075;50.924;4.396;2024-02-23T10:46:49;9.30;99.90
19829;DHT22;10075;50.924;4.396;2024-02-23T10:49:17;9.20;99.90
19829;DHT22;10075;50.924;4.396;2024-02-23T10:51:48;9.20;99.90
19829;DHT22;10075;50.924;4.396;2024-02-23T10:54:16;9.20;99.90
19829;DHT22;10075;50.924;4.396;2024-02-23T10:56:47;9.30;99.90
19829;DHT22;10075;50.924;4.396;2024-02-23T10:59:14;9.30;99.90
19829;DHT22;10075;50.924;4.396;2024-02-23T11:01:46;9.40;99.90
19829;DHT22;10075;50.924;4.396;2024-02-23T11:04:15;9.50;99.90
19829;DHT22;10075;50.924;4.396;2024-02-23T11:06:42;9.60;99.90
19829;DHT22;10075;50.924;4.396;2024-02-23T11:09:15;9.70;99.90
19829;DHT22;10075;50.924;4.396;2024-02-23T11:11:52;9.70;99.90
19829;DHT22;10075;50.924;4.396;2024-02-23T11:14:29;9.80;99.90
19829;DHT22;10075;50.924;4.396;2024-02-23T11:16:57;9.90;99.90
19829;DHT22;10075;50.924;4.396;2024-02-23T11:19:32;9.80;99.90
19829;DHT22;10075;50.924;4.396;2024-02-23T11:22:01;9.80;99.90
19829;DHT22;10075;50.924;4.396;2024-02-23T11:24:29;9.80;99.90
19829;DHT22;10075;50.924;4.396;2024-02-23T11:26:57;9.80;99.90
19829;DHT22;10075;50.924;4.396;2024-02-23T11:29:26;9.80;99.90
19829;DHT22;10075;50.924;4.396;2024-02-23T11:31:53;9.60;99.90
19829;DHT22;10075;50.924;4.396;2024-02-23T11:34:28;9.70;99.90
19829;DHT22;10075;50.924;4.396;2024-02-23T11:36:55;9.70;99.90
19829;DHT22;10075;50.924;4.396;2024-02-23T11:39:24;9.50;99.90
19829;DHT22;10075;50.924;4.396;2024-02-23T11:41:52;9.50;99.90
19829;DHT22;10075;50.924;4.396;2024-02-23T11:44:19;9.40;99.90
19829;DHT22;10075;50.924;4.396;2024-02-23T11:46:46;9.50;99.90
19829;DHT22;10075;50.924;4.396;2024-02-23T11:49:14;9.30;99.90
19829;DHT22;10075;50.924;4.396;2024-02-23T11:51:42;9.20;99.90
19829;DHT22;10075;50.924;4.396;2024-02-23T11:54:10;9.20;99.90
19829;DHT22;10075;50.924;4.396;2024-02-23T11:56:37;9.10;99.90
19829;DHT22;10075;50.924;4.396;2024-02-23T11:59:05;9.20;99.90
19829;DHT22;10075;50.924;4.396;2024-02-23T12:01:31;9.20;99.90
19829;DHT22;10075;50.924;4.396;2024-02-23T12:03:58;9.20;99.90
19829;DHT22;10075;50.924;4.396;2024-02-23T12:06:26;9.20;99.90
19829;DHT22;10075;50.924;4.396;2024-02-23T12:08:57;9.10;99.90
19829;DHT22;10075;50.924;4.396;2024-02-23T12:11:24;9.10;99.90
19829;DHT22;10075;50.924;4.396;2024-02-23T12:13:51;9.20;99.90
19829;DHT22;10075;50.924;4.396;2024-02-23T12:16:18;9.30;99.90
19829;DHT22;10075;50.924;4.396;2024-02-23T12:18:52;9.40;99.90
19829;DHT22;10075;50.924;4.396;2024-02-23T12:21:21;9.50;99.90
19829;DHT22;10075;50.924;4.396;2024-02-23T12:23:49;9.70;99.90
19829;DHT22;10075;50.924;4.396;2024-02-23T12:26:18;9.80;99.90
19829;DHT22;10075;50.924;4.396;2024-02-23T12:28:46;10.10;99.90
19829;DHT22;10075;50.924;4.396;2024-02-23T12:31:13;10.20;99.90
19829;DHT22;10075;50.924;4.396;2024-02-23T12:33:40;10.20;99.90
19829;DHT22;10075;50.924;4.396;2024-02-23T12:36:08;10.10;99.90
19829;DHT22;10075;50.924;4.396;2024-02-23T12:38:37;10.10;99.90
19829;DHT22;10075;50.924;4.396;2024-02-23T12:41:04;10.10;99.90
19829;DHT22;10075;50.924;4.396;2024-02-23T12:43:32;10.20;99.90
19829;DHT22;10075;50.924;4.396;2024-02-23T12:45:59;10.20;99.90
19829;DHT22;10075;50.924;4.396;2024-02-23T12:48:28;10.20;99.90
19829;DHT22;10075;50.924;4.396;2024-02-23T12:50:55;10.20;99.90
19829;DHT22;10075;50.924;4.396;2024-02-23T12:53:33;10.10;99.90
19829;DHT22;10075;50.924;4.396;2024-02-23T12:56:02;10.30;99.90
19829;DHT22;10075;50.924;4.396;2024-02-23T12:58:29;10.20;99.90
19829;DHT22;10075;50.924;4.396;2024-02-23T13:00:57;9.90;99.90
19829;DHT22;10075;50.924;4.396;2024-02-23T13:03:25;9.90;99.90
19829;DHT22;10075;50.924;4.396;2024-02-23T13:05:53;10.20;99.90
19829;DHT22;10075;50.924;4.396;2024-02-23T13:08:20;10.40;99.90
19829;DHT22;10075;50.924;4.396;2024-02-23T13:10:47;10.50;99.90
19829;DHT22;10075;50.924;4.396;2024-02-23T13:13:14;10.10;99.90
19829;DHT22;10075;50.924;4.396;2024-02-23T13:15:41;9.90;99.90
19829;DHT22;10075;50.924;4.396;2024-02-23T13:18:10;10.10;99.90
19829;DHT22;10075;50.924;4.396;2024-02-23T13:20:36;10.10;99.90
19829;DHT22;10075;50.924;4.396;2024-02-23T13:23:03;10.00;99.90
19829;DHT22;10075;50.924;4.396;2024-02-23T13:25:30;10.00;99.90
19829;DHT22;10075;50.924;4.396;2024-02-23T13:27:57;10.10;99.90
19829;DHT22;10075;50.924;4.396;2024-02-23T13:30:24;10.30;99.90
19829;DHT22;10075;50.924;4.396;2024-02-23T13:32:52;10.40;99.90
19829;DHT22;10075;50.924;4.396;2024-02-23T13:35:20;10.50;99.90
19829;DHT22;10075;50.924;4.396;2024-02-23T13:37:47;10.70;99.90
19829;DHT22;10075;50.924;4.396;2024-02-23T13:40:14;10.50;99.90
19829;DHT22;10075;50.924;4.396;2024-02-23T13:42:41;10.60;99.90
19829;DHT22;10075;50.924;4.396;2024-02-23T13:45:11;10.70;99.90
19829;DHT22;10075;50.924;4.396;2024-02-23T13:47:39;10.90;99.90
19829;DHT22;10075;50.924;4.396;2024-02-23T13:50:07;10.80;99.90
19829;DHT22;10075;50.924;4.396;2024-02-23T13:52:36;10.60;99.90
19829;DHT22;10075;50.924;4.396;2024-02-23T13:55:03;10.70;99.90
19829;DHT22;10075;50.924;4.396;2024-02-23T13:57:30;10.90;99.90
19829;DHT22;10075;50.924;4.396;2024-02-23T13:59:58;10.80;99.90
19829;DHT22;10075;50.924;4.396;2024-02-23T14:02:25;10.60;99.90
19829;DHT22;10075;50.924;4.396;2024-02-23T14:04:59;10.50;99.90
19829;DHT22;10075;50.924;4.396;2024-02-23T14:07:27;10.60;99.90
19829;DHT22;10075;50.924;4.396;2024-02-23T14:09:56;10.60;99.90
19829;DHT22;10075;50.924;4.396;2024-02-23T14:12:23;10.70;99.90
19829;DHT22;10075;50.924;4.396;2024-02-23T14:14:49;10.50;99.90
19829;DHT22;10075;50.924;4.396;2024-02-23T14:17:16;10.60;99.90
19829;DHT22;10075;50.924;4.396;2024-02-23T14:19:43;10.70;99.90
19829;DHT22;10075;50.924;4.396;2024-02-23T14:22:11;10.80;99.90
19829;DHT22;10075;50.924;4.396;2024-02-23T14:24:38;10.90;99.90
19829;DHT22;10075;50.924;4.396;2024-02-23T14:27:07;10.50;99.90
19829;DHT22;10075;50.924;4.396;2024-02-23T14:29:34;10.50;99.90
19829;DHT22;10075;50.924;4.396;2024-02-23T14:32:01;10.60;99.90
19829;DHT22;10075;50.924;4.396;2024-02-23T14:34:28;10.90;99.90
19829;DHT22;10075;50.924;4.396;2024-02-23T14:36:55;11.10;99.90
19829;DHT22;10075;50.924;4.396;2024-02-23T14:39:24;11.20;99.90
19829;DHT22;10075;50.924;4.396;2024-02-23T14:41:51;11.00;99.90
19829;DHT22;10075;50.924;4.396;2024-02-23T14:44:19;10.60;99.90
19829;DHT22;10075;50.924;4.396;2024-02-23T14:46:46;10.60;99.90
19829;DHT22;10075;50.924;4.396;2024-02-23T14:49:13;10.40;99.90
19829;DHT22;10075;50.924;4.396;2024-02-23T14:51:40;10.20;99.90
19829;DHT22;10075;50.924;4.396;2024-02-23T14:54:08;10.20;99.90
19829;DHT22;10075;50.924;4.396;2024-02-23T14:56:35;10.30;99.90
19829;DHT22;10075;50.924;4.396;2024-02-23T14:59:02;10.40;99.90
19829;DHT22;10075;50.924;4.396;2024-02-23T15:01:31;10.60;99.90
19829;DHT22;10075;50.924;4.396;2024-02-23T15:03:58;10.90;99.90
19829;DHT22;10075;50.924;4.396;2024-02-23T15:06:25;10.80;99.90
19829;DHT22;10075;50.924;4.396;2024-02-23T15:08:52;10.90;99.90
19829;DHT22;10075;50.924;4.396;2024-02-23T15:11:19;11.00;99.90
19829;DHT22;10075;50.924;4.396;2024-02-23T15:13:47;11.10;99.90
19829;DHT22;10075;50.924;4.396;2024-02-23T15:16:14;11.00;99.90
19829;DHT22;10075;50.924;4.396;2024-02-23T15:18:42;10.80;99.90
19829;DHT22;10075;50.924;4.396;2024-02-23T15:21:09;10.80;99.90
19829;DHT22;10075;50.924;4.396;2024-02-23T15:23:37;10.70;99.90
19829;DHT22;10075;50.924;4.396;2024-02-23T15:26:06;10.60;99.90
19829;DHT22;10075;50.924;4.396;2024-02-23T15:28:33;10.60;99.90
19829;DHT22;10075;50.924;4.396;2024-02-23T15:31:00;10.80;99.90
19829;DHT22;10075;50.924;4.396;2024-02-23T15:33:28;11.10;99.90
19829;DHT22;10075;50.924;4.396;2024-02-23T15:35:57;11.20;99.90
19829;DHT22;10075;50.924;4.396;2024-02-23T15:38:24;11.30;99.90
19829;DHT22;10075;50.924;4.396;2024-02-23T15:40:51;11.40;99.90
19829;DHT22;10075;50.924;4.396;2024-02-23T15:43:18;11.40;99.90
19829;DHT22;10075;50.924;4.396;2024-02-23T15:45:46;11.40;99.90